Time;durP1;ratioP1;P1;durP2;ratioP2;P2;SDS_P1;SDS_P2;PMS_P1;PMS_P2;Temp;Humidity;BMP_temperature;BMP_pressure;BME280_temperature;BME280_humidity;BME280_pressure;Samples;Min_cycle;Max_cycle;Signal;HPM_P1;HPM_P2
2023/11/17 00:00:23;;;;;;;40.97;29.40;;;9.30;99.90;;;;;;4937361;29;20729;-87
2023/11/17 00:02:48;;;;;;;41.10;31.00;;;9.20;99.90;;;;;;4941906;28;20193;-87
2023/11/17 00:05:16;;;;;;;41.00;30.60;;;9.20;99.90;;;;;;4940720;28;20531;-85
2023/11/17 00:07:42;;;;;;;44.23;30.73;;;9.10;99.90;;;;;;4943530;28;20207;-89
2023/11/17 00:10:08;;;;;;;45.37;30.10;;;9.40;99.90;;;;;;4944206;28;20678;-86
2023/11/17 00:12:35;;;;;;;44.27;30.10;;;9.20;99.90;;;;;;4965500;28;20267;-88
2023/11/17 00:15:00;;;;;;;41.57;30.40;;;9.10;99.90;;;;;;4957182;28;20211;-87
2023/11/17 00:17:27;;;;;;;42.67;30.10;;;9.20;99.90;;;;;;4935265;29;20213;-87
2023/11/17 00:19:53;;;;;;;43.43;30.77;;;9.30;99.90;;;;;;4940266;28;20181;-86
2023/11/17 00:22:20;;;;;;;41.80;30.17;;;9.30;99.90;;;;;;4971135;28;20220;-87
2023/11/17 00:24:46;;;;;;;37.23;29.83;;;9.30;99.90;;;;;;4949289;28;20268;-92
2023/11/17 00:27:11;;;;;;;42.40;30.27;;;9.10;99.90;;;;;;4950614;28;20274;-86
2023/11/17 00:29:37;;;;;;;41.13;28.17;;;9.30;99.90;;;;;;4961991;28;20561;-85
2023/11/17 00:32:04;;;;;;;42.13;29.20;;;9.00;99.90;;;;;;4969179;28;20187;-86
2023/11/17 00:34:30;;;;;;;41.43;29.03;;;9.00;99.90;;;;;;4950806;28;20679;-86
2023/11/17 00:36:58;;;;;;;37.93;28.17;;;9.00;99.90;;;;;;4940890;29;20211;-87
2023/11/17 00:39:28;;;;;;;37.73;27.63;;;8.90;99.90;;;;;;4938709;28;20711;-85
2023/11/17 00:41:55;;;;;;;38.07;26.53;;;8.90;99.90;;;;;;4974069;28;20227;-84
2023/11/17 00:44:21;;;;;;;37.00;27.37;;;8.90;99.90;;;;;;4946305;29;20194;-85
2023/11/17 00:46:47;;;;;;;40.70;28.77;;;9.00;99.90;;;;;;4968405;28;20231;-85
2023/11/17 00:49:13;;;;;;;41.53;27.47;;;8.80;99.90;;;;;;4953390;28;20613;-87
2023/11/17 00:51:40;;;;;;;37.50;25.87;;;8.80;99.90;;;;;;4944677;29;20197;-84
2023/11/17 00:54:06;;;;;;;35.33;26.17;;;8.80;99.90;;;;;;4945597;29;20263;-85
2023/11/17 00:56:33;;;;;;;35.40;26.30;;;9.00;99.90;;;;;;4943416;28;20198;-84
2023/11/17 00:59:00;;;;;;;34.53;25.90;;;8.90;99.90;;;;;;4948654;29;20798;-84
2023/11/17 01:01:27;;;;;;;38.57;26.53;;;8.90;99.90;;;;;;4955958;28;20191;-83
2023/11/17 01:03:52;;;;;;;31.77;25.00;;;9.10;99.90;;;;;;4961174;28;20191;-83
2023/11/17 01:06:18;;;;;;;35.73;25.33;;;9.20;99.90;;;;;;4977531;28;20185;-83
2023/11/17 01:08:43;;;;;;;36.23;25.37;;;9.10;99.90;;;;;;4955445;29;20188;-85
2023/11/17 01:11:12;;;;;;;37.67;26.03;;;9.00;99.90;;;;;;4951242;28;20559;-84
2023/11/17 01:13:41;;;;;;;33.83;24.90;;;9.00;99.90;;;;;;4943687;28;20196;-84
2023/11/17 01:16:07;;;;;;;37.23;25.60;;;9.00;99.90;;;;;;4946908;28;20231;-85
2023/11/17 01:18:33;;;;;;;33.73;23.63;;;9.00;99.90;;;;;;4939131;29;20185;-86
2023/11/17 01:20:59;;;;;;;38.73;24.93;;;8.90;99.90;;;;;;4962926;28;20530;-85
2023/11/17 01:23:27;;;;;;;33.97;24.53;;;8.90;99.90;;;;;;4940076;29;20231;-86
2023/11/17 01:25:52;;;;;;;32.77;23.53;;;9.10;99.90;;;;;;4950816;28;20179;-87
2023/11/17 01:28:18;;;;;;;36.33;25.03;;;9.10;99.90;;;;;;4940529;29;20190;-87
2023/11/17 01:30:43;;;;;;;28.93;23.87;;;9.10;99.90;;;;;;4934709;29;20664;-86
2023/11/17 01:33:09;;;;;;;33.33;24.13;;;9.20;99.90;;;;;;4967372;28;20186;-85
2023/11/17 01:35:35;;;;;;;33.93;24.23;;;8.90;99.90;;;;;;4940517;29;20339;-83
2023/11/17 01:38:01;;;;;;;33.63;25.03;;;9.00;99.90;;;;;;4988100;28;20191;-84
2023/11/17 01:40:27;;;;;;;32.87;24.67;;;8.90;99.90;;;;;;4940433;28;20215;-87
2023/11/17 01:42:53;;;;;;;33.27;24.30;;;9.10;99.90;;;;;;4949232;28;20239;-87
2023/11/17 01:45:21;;;;;;;31.50;24.07;;;9.00;99.90;;;;;;4946076;28;20188;-87
2023/11/17 01:47:47;;;;;;;37.10;24.37;;;9.00;99.90;;;;;;4951892;28;20188;-87
2023/11/17 01:50:14;;;;;;;35.70;24.87;;;9.00;99.90;;;;;;4936770;29;20247;-88
2023/11/17 01:52:42;;;;;;;40.47;26.83;;;9.00;99.90;;;;;;4955440;28;20345;-86
2023/11/17 01:55:09;;;;;;;38.93;25.40;;;9.00;99.90;;;;;;4948967;29;20220;-88
2023/11/17 01:57:38;;;;;;;40.80;26.60;;;8.90;99.90;;;;;;4975644;28;20200;-87
2023/11/17 02:00:07;;;;;;;41.60;27.27;;;9.00;99.90;;;;;;4945406;28;20195;-87
2023/11/17 02:02:35;;;;;;;41.53;27.63;;;8.90;99.90;;;;;;4937150;29;20263;-86
2023/11/17 02:05:02;;;;;;;42.60;28.57;;;8.90;99.90;;;;;;4953703;28;20263;-86
2023/11/17 02:07:41;;;;;;;39.70;28.20;;;8.80;99.90;;;;;;4956484;28;20211;-86
2023/11/17 02:10:14;;;;;;;46.23;29.53;;;8.80;99.90;;;;;;4941463;29;20303;-88
2023/11/17 02:12:52;;;;;;;41.83;29.20;;;8.80;99.90;;;;;;4946467;28;20188;-86
2023/11/17 02:15:26;;;;;;;48.97;29.93;;;8.80;99.90;;;;;;4974175;28;20215;-93
2023/11/17 02:17:54;;;;;;;40.60;29.77;;;9.00;99.90;;;;;;4969760;28;20270;-86
2023/11/17 02:20:25;;;;;;;48.23;30.43;;;8.90;99.90;;;;;;4955578;28;20191;-87
2023/11/17 02:22:57;;;;;;;47.13;30.53;;;8.90;99.90;;;;;;4943678;28;20315;-87
2023/11/17 02:25:44;;;;;;;43.47;29.60;;;9.00;99.90;;;;;;4956445;28;20192;-86
2023/11/17 02:28:58;;;;;;;41.93;29.20;;;9.00;99.90;;;;;;4942883;28;20209;-86
2023/11/17 02:31:31;;;;;;;48.73;30.50;;;9.00;99.90;;;;;;4956774;28;20188;-85
2023/11/17 02:34:05;;;;;;;43.33;29.23;;;9.00;99.90;;;;;;4947419;28;20195;-86
2023/11/17 02:36:35;;;;;;;39.27;27.83;;;9.00;99.90;;;;;;4954329;28;20201;-86
2023/11/17 02:39:12;;;;;;;42.80;30.43;;;9.00;99.90;;;;;;4939665;29;20244;-86
2023/11/17 02:41:42;;;;;;;46.53;30.50;;;9.00;99.90;;;;;;4940663;29;20211;-88
2023/11/17 02:44:12;;;;;;;41.67;29.47;;;9.10;99.90;;;;;;4941389;29;20188;-86
2023/11/17 02:46:44;;;;;;;45.80;28.20;;;9.30;99.90;;;;;;4959896;29;20621;-85
2023/11/17 02:49:17;;;;;;;45.73;28.60;;;9.10;99.90;;;;;;4942693;29;20597;-86
2023/11/17 02:51:50;;;;;;;37.80;28.30;;;9.20;99.90;;;;;;4940595;29;20193;-91
2023/11/17 02:54:16;;;;;;;39.23;28.50;;;9.10;99.90;;;;;;4939704;29;20192;-86
2023/11/17 02:56:42;;;;;;;39.73;28.37;;;9.20;99.90;;;;;;4940418;29;20257;-86
2023/11/17 02:59:11;;;;;;;40.87;30.23;;;9.10;99.90;;;;;;4940363;29;20228;-86
2023/11/17 03:01:38;;;;;;;38.63;28.17;;;9.10;99.90;;;;;;4939841;29;20184;-84
2023/11/17 03:04:13;;;;;;;40.40;28.17;;;9.10;99.90;;;;;;4940146;29;20181;-89
2023/11/17 03:06:50;;;;;;;41.67;29.80;;;9.20;99.90;;;;;;4940635;29;20647;-86
2023/11/17 03:09:21;;;;;;;42.10;29.10;;;9.10;99.90;;;;;;4940413;29;20637;-86
2023/11/17 03:11:52;;;;;;;41.30;30.50;;;9.10;99.90;;;;;;4957702;29;20640;-88
2023/11/17 03:14:19;;;;;;;43.67;29.37;;;9.20;99.90;;;;;;4941179;29;20266;-88
2023/11/17 03:16:51;;;;;;;43.67;31.30;;;9.40;99.90;;;;;;4941461;29;20212;-86
2023/11/17 03:19:16;;;;;;;40.27;29.23;;;9.30;99.90;;;;;;4957802;29;20182;-86
2023/11/17 03:21:42;;;;;;;42.03;29.10;;;9.40;99.90;;;;;;4942177;29;20277;-87
2023/11/17 03:24:14;;;;;;;41.00;26.97;;;9.20;99.90;;;;;;4957536;29;20196;-87
2023/11/17 03:26:42;;;;;;;40.67;27.63;;;9.10;99.90;;;;;;4939685;29;20247;-87
2023/11/17 03:29:09;;;;;;;41.17;27.03;;;9.10;99.90;;;;;;4939579;29;20185;-88
2023/11/17 03:31:34;;;;;;;41.37;26.53;;;9.10;99.90;;;;;;4939812;29;20637;-87
2023/11/17 03:34:01;;;;;;;38.43;26.83;;;9.30;99.90;;;;;;4941094;29;20271;-86
2023/11/17 03:36:27;;;;;;;38.37;25.77;;;9.10;99.90;;;;;;4964800;29;20224;-85
2023/11/17 03:38:56;;;;;;;36.13;25.10;;;9.00;99.90;;;;;;4942907;29;20177;-85
2023/11/17 03:41:22;;;;;;;39.93;25.87;;;8.90;99.90;;;;;;4941031;29;20250;-86
2023/11/17 03:43:49;;;;;;;35.80;25.17;;;9.00;99.90;;;;;;4941140;29;20283;-86
2023/11/17 03:46:15;;;;;;;35.57;25.10;;;8.90;99.90;;;;;;4942238;29;20191;-86
2023/11/17 03:48:41;;;;;;;36.37;23.73;;;8.90;99.90;;;;;;4943441;29;20193;-85
2023/11/17 03:51:08;;;;;;;32.73;23.20;;;9.10;99.90;;;;;;4952300;29;20184;-85
2023/11/17 03:53:37;;;;;;;31.87;23.47;;;9.00;99.90;;;;;;4958122;29;20192;-83
2023/11/17 03:56:03;;;;;;;29.27;21.67;;;9.00;99.90;;;;;;4959158;29;20239;-84
2023/11/17 03:58:29;;;;;;;27.13;21.30;;;9.00;99.90;;;;;;4944477;29;20188;-84
2023/11/17 04:00:57;;;;;;;28.03;20.87;;;9.10;99.90;;;;;;4941655;29;20207;-85
2023/11/17 04:03:22;;;;;;;26.60;19.10;;;9.10;99.90;;;;;;4924745;29;20679;-86
2023/11/17 04:05:48;;;;;;;24.20;19.30;;;9.00;99.90;;;;;;4941423;29;20197;-85
2023/11/17 04:08:17;;;;;;;25.77;19.00;;;9.00;99.90;;;;;;4940569;29;20184;-85
2023/11/17 04:10:44;;;;;;;22.93;18.00;;;8.90;99.90;;;;;;4941964;29;20191;-87
2023/11/17 04:13:09;;;;;;;23.80;18.73;;;9.00;99.90;;;;;;4940059;29;20180;-86
2023/11/17 04:15:35;;;;;;;23.33;18.60;;;8.90;99.90;;;;;;4938121;28;20585;-90
2023/11/17 04:18:01;;;;;;;22.50;17.67;;;8.80;99.90;;;;;;4940486;29;20184;-85
2023/11/17 04:20:27;;;;;;;20.40;16.40;;;8.80;99.90;;;;;;4946791;29;20188;-85
2023/11/17 04:22:52;;;;;;;19.90;15.60;;;8.70;99.90;;;;;;4955882;29;20239;-87
2023/11/17 04:25:20;;;;;;;18.33;13.83;;;8.70;99.90;;;;;;4975714;29;20168;-86
2023/11/17 04:27:47;;;;;;;16.17;12.80;;;8.80;99.90;;;;;;4961034;29;20195;-87
2023/11/17 04:30:13;;;;;;;18.13;13.90;;;8.90;99.90;;;;;;4956063;29;20206;-90
2023/11/17 04:32:39;;;;;;;18.60;14.53;;;9.00;99.90;;;;;;4956514;29;20176;-86
2023/11/17 04:35:06;;;;;;;18.40;13.83;;;9.20;99.90;;;;;;4938518;29;20656;-86
2023/11/17 04:37:31;;;;;;;18.77;15.87;;;9.20;99.90;;;;;;4941321;29;20200;-87
2023/11/17 04:39:58;;;;;;;20.87;14.60;;;9.20;99.90;;;;;;4939938;29;20263;-84
2023/11/17 04:42:24;;;;;;;18.10;14.50;;;9.30;99.90;;;;;;4940401;29;20703;-86
2023/11/17 04:44:49;;;;;;;17.87;14.73;;;9.20;99.90;;;;;;4939329;29;20196;-86
2023/11/17 04:47:15;;;;;;;18.37;15.57;;;9.20;99.90;;;;;;4937662;29;20192;-87
2023/11/17 04:49:44;;;;;;;20.87;15.77;;;9.20;99.90;;;;;;4939058;29;20279;-87
2023/11/17 04:52:10;;;;;;;18.10;14.03;;;9.20;99.90;;;;;;4938748;29;20231;-90
2023/11/17 04:54:36;;;;;;;18.27;15.33;;;9.20;99.90;;;;;;4938393;29;20208;-85
2023/11/17 04:57:01;;;;;;;20.57;15.30;;;9.20;99.90;;;;;;4938524;29;20184;-87
2023/11/17 04:59:27;;;;;;;19.17;14.73;;;9.30;99.90;;;;;;4955121;29;20172;-86
2023/11/17 05:01:52;;;;;;;18.13;15.13;;;9.20;99.90;;;;;;4937608;29;20703;-85
2023/11/17 05:04:18;;;;;;;19.87;13.90;;;9.10;99.90;;;;;;4938221;29;20224;-86
2023/11/17 05:06:44;;;;;;;19.10;15.27;;;9.10;99.90;;;;;;4937980;29;20676;-88
2023/11/17 05:09:11;;;;;;;17.53;14.33;;;9.10;99.90;;;;;;4939145;29;20271;-85
2023/11/17 05:11:40;;;;;;;17.77;14.13;;;9.10;99.90;;;;;;4944380;29;20195;-87
2023/11/17 05:14:06;;;;;;;17.93;13.47;;;9.10;99.90;;;;;;4941674;29;20246;-87
2023/11/17 05:16:37;;;;;;;19.30;15.30;;;9.10;99.90;;;;;;4925122;29;20225;-86
2023/11/17 05:19:06;;;;;;;18.17;13.90;;;9.20;99.90;;;;;;4958417;29;20219;-88
2023/11/17 05:21:32;;;;;;;17.63;14.13;;;9.20;99.90;;;;;;4958553;29;20207;-85
2023/11/17 05:23:59;;;;;;;16.33;13.93;;;9.30;99.90;;;;;;4952864;29;20200;-84
2023/11/17 05:26:25;;;;;;;19.17;14.10;;;9.10;99.90;;;;;;4952994;29;20179;-83
2023/11/17 05:28:50;;;;;;;15.73;13.67;;;9.00;99.90;;;;;;4969944;28;20191;-83
2023/11/17 05:31:18;;;;;;;16.10;14.37;;;9.00;99.90;;;;;;4955212;29;20176;-84
2023/11/17 05:33:44;;;;;;;20.37;16.20;;;8.90;99.90;;;;;;4961704;28;20191;-85
2023/11/17 05:36:09;;;;;;;20.40;16.20;;;8.80;99.90;;;;;;4970194;29;20228;-87
2023/11/17 05:38:37;;;;;;;18.77;15.77;;;8.80;99.90;;;;;;4948832;29;20183;-85
2023/11/17 05:41:03;;;;;;;20.17;16.93;;;8.80;99.90;;;;;;4979938;28;20200;-85
2023/11/17 05:43:30;;;;;;;19.53;17.20;;;8.80;99.90;;;;;;4946164;29;20183;-88
2023/11/17 05:45:59;;;;;;;20.23;17.43;;;9.00;99.90;;;;;;4947039;29;20176;-85
2023/11/17 05:48:25;;;;;;;22.20;17.97;;;8.80;99.90;;;;;;4966842;28;20184;-87
2023/11/17 05:50:51;;;;;;;21.63;17.60;;;8.90;99.90;;;;;;4945183;29;20176;-91
2023/11/17 05:53:16;;;;;;;22.00;19.37;;;8.80;99.90;;;;;;4961924;28;20181;-86
2023/11/17 05:55:42;;;;;;;23.30;19.57;;;8.90;99.90;;;;;;4943666;29;21036;-86
2023/11/17 05:58:07;;;;;;;21.63;19.33;;;8.80;99.90;;;;;;4944042;29;20187;-89
2023/11/17 06:00:33;;;;;;;23.70;19.87;;;8.80;99.90;;;;;;4960875;29;20216;-87
2023/11/17 06:02:59;;;;;;;22.97;19.67;;;8.90;99.90;;;;;;4943964;29;20196;-86
2023/11/17 06:05:25;;;;;;;23.63;20.30;;;8.70;99.90;;;;;;4944249;29;20204;-87
2023/11/17 06:07:51;;;;;;;23.43;19.60;;;8.60;99.90;;;;;;4943195;28;20184;-88
2023/11/17 06:10:16;;;;;;;22.20;18.77;;;8.70;99.90;;;;;;4944473;29;20287;-86
2023/11/17 06:12:42;;;;;;;20.60;18.40;;;8.70;99.90;;;;;;4943644;29;20188;-87
2023/11/17 06:15:10;;;;;;;19.77;16.57;;;8.70;99.90;;;;;;4943967;29;20313;-86
2023/11/17 06:17:36;;;;;;;19.60;16.10;;;8.70;99.90;;;;;;4945913;29;20196;-87
2023/11/17 06:20:03;;;;;;;19.67;16.53;;;8.70;99.90;;;;;;4945289;29;20294;-86
2023/11/17 06:22:30;;;;;;;18.83;15.67;;;8.80;99.90;;;;;;4944814;29;20664;-86
2023/11/17 06:24:56;;;;;;;18.93;15.60;;;8.70;99.90;;;;;;4943716;28;20188;-86
2023/11/17 06:27:23;;;;;;;17.23;14.20;;;8.80;99.90;;;;;;4976457;28;20191;-88
2023/11/17 06:29:50;;;;;;;17.33;13.77;;;8.70;99.90;;;;;;4940156;29;20563;-86
2023/11/17 06:32:16;;;;;;;16.70;14.47;;;8.60;99.90;;;;;;4944810;29;20208;-86
2023/11/17 06:34:42;;;;;;;16.83;13.73;;;8.70;99.90;;;;;;4942783;29;20216;-87
2023/11/17 06:37:09;;;;;;;16.10;13.27;;;8.60;99.90;;;;;;4940645;29;20196;-96
2023/11/17 06:39:35;;;;;;;18.20;14.13;;;8.50;99.90;;;;;;4940391;29;20188;-88
2023/11/17 06:42:00;;;;;;;17.13;13.63;;;8.60;99.90;;;;;;4940477;29;20195;-88
2023/11/17 06:44:26;;;;;;;17.80;14.43;;;8.70;99.90;;;;;;4937562;29;20172;-87
2023/11/17 06:46:52;;;;;;;15.63;13.93;;;8.60;99.90;;;;;;4947876;29;20189;-88
2023/11/17 06:49:22;;;;;;;17.80;15.20;;;8.60;99.90;;;;;;4968343;29;20256;-86
2023/11/17 06:51:49;;;;;;;15.10;13.50;;;8.60;99.90;;;;;;4943517;29;20232;-88
2023/11/17 06:54:15;;;;;;;17.43;14.70;;;8.60;99.90;;;;;;4939278;29;20180;-88
2023/11/17 06:56:43;;;;;;;17.33;14.60;;;8.50;99.90;;;;;;4941081;29;20216;-90
2023/11/17 06:59:14;;;;;;;18.90;15.00;;;8.60;99.90;;;;;;4941404;29;20185;-88
2023/11/17 07:01:41;;;;;;;18.70;15.00;;;8.60;99.90;;;;;;4957678;29;20661;-88
2023/11/17 07:04:07;;;;;;;18.80;15.87;;;8.50;99.90;;;;;;4957164;29;20247;-88
2023/11/17 07:06:34;;;;;;;19.13;16.53;;;8.60;99.90;;;;;;4941314;29;20261;-89
2023/11/17 07:09:15;;;;;;;21.03;16.47;;;8.60;99.90;;;;;;4959861;29;20181;-88
2023/11/17 07:11:46;;;;;;;19.67;16.00;;;8.50;99.90;;;;;;4941271;29;20199;-88
2023/11/17 07:14:13;;;;;;;23.10;17.03;;;8.60;99.90;;;;;;4942014;29;20251;-90
2023/11/17 07:16:42;;;;;;;20.23;17.23;;;8.50;99.90;;;;;;4918900;29;20228;-91
2023/11/17 07:19:16;;;;;;;22.37;17.60;;;8.50;99.90;;;;;;4947304;28;20216;-90
2023/11/17 07:21:42;;;;;;;20.33;16.90;;;8.60;99.90;;;;;;4940050;29;20656;-88
2023/11/17 07:24:10;;;;;;;22.93;17.10;;;8.60;99.90;;;;;;4962765;29;20219;-88
2023/11/17 07:26:38;;;;;;;23.17;17.67;;;8.70;99.90;;;;;;4942991;29;20192;-89
2023/11/17 07:29:05;;;;;;;22.43;17.67;;;8.90;99.90;;;;;;4943527;29;20321;-89
2023/11/17 07:31:40;;;;;;;24.83;19.07;;;8.80;99.90;;;;;;4948969;29;20188;-87
2023/11/17 07:34:15;;;;;;;24.83;18.97;;;8.80;99.90;;;;;;4948845;29;20227;-90
2023/11/17 07:36:41;;;;;;;22.97;17.87;;;8.70;99.90;;;;;;4945075;29;20251;-89
2023/11/17 07:39:09;;;;;;;22.80;19.13;;;8.70;99.90;;;;;;4941084;29;20273;-92
2023/11/17 07:41:35;;;;;;;22.73;17.37;;;8.80;99.90;;;;;;4958698;29;20173;-89
2023/11/17 07:44:02;;;;;;;26.13;18.83;;;8.70;99.90;;;;;;4941839;29;20187;-88
2023/11/17 07:46:29;;;;;;;24.80;18.80;;;8.80;99.90;;;;;;4958174;29;20173;-90
2023/11/17 07:48:57;;;;;;;24.93;18.47;;;9.00;99.90;;;;;;4941476;29;20207;-89
2023/11/17 07:51:23;;;;;;;26.10;20.03;;;9.10;99.90;;;;;;4940407;29;20208;-89
2023/11/17 07:53:49;;;;;;;26.73;20.37;;;9.10;99.90;;;;;;4940408;29;20184;-87
2023/11/17 07:56:16;;;;;;;25.20;19.27;;;9.10;99.90;;;;;;4943397;29;20223;-89
2023/11/17 07:58:42;;;;;;;26.17;21.27;;;9.10;99.90;;;;;;4949949;29;20180;-88
2023/11/17 08:01:11;;;;;;;25.50;20.03;;;9.00;99.90;;;;;;4940907;29;20247;-89
2023/11/17 08:03:38;;;;;;;25.97;20.10;;;9.10;99.90;;;;;;4941040;29;20197;-90
2023/11/17 08:06:04;;;;;;;23.03;17.90;;;9.10;99.90;;;;;;4940537;29;20282;-89
2023/11/17 08:08:31;;;;;;;22.13;18.67;;;9.20;99.90;;;;;;4942640;29;20223;-88
2023/11/17 08:10:57;;;;;;;26.03;20.27;;;9.30;99.90;;;;;;4943245;29;20203;-88
2023/11/17 08:13:23;;;;;;;28.83;22.63;;;9.30;99.90;;;;;;4941835;29;20219;-92
2023/11/17 08:15:49;;;;;;;30.33;21.80;;;9.30;99.90;;;;;;4958955;28;20239;-89
2023/11/17 08:18:19;;;;;;;31.53;21.90;;;9.40;99.90;;;;;;4943497;29;20188;-88
2023/11/17 08:20:45;;;;;;;28.47;21.93;;;9.40;99.90;;;;;;4960958;29;20243;-90
2023/11/17 08:23:11;;;;;;;27.53;20.70;;;9.50;99.90;;;;;;4941887;29;20214;-88
2023/11/17 08:25:38;;;;;;;31.03;21.40;;;9.50;99.90;;;;;;4942547;29;20196;-88
2023/11/17 08:28:07;;;;;;;27.13;20.30;;;9.40;99.90;;;;;;4944994;29;20637;-86
2023/11/17 08:30:33;;;;;;;28.07;20.70;;;9.30;99.90;;;;;;4945015;29;20703;-90
2023/11/17 08:32:59;;;;;;;31.63;21.33;;;9.30;99.90;;;;;;4943131;29;20196;-87
2023/11/17 08:35:25;;;;;;;28.40;21.37;;;9.40;99.90;;;;;;4942866;29;20220;-87
2023/11/17 08:37:52;;;;;;;34.60;21.73;;;9.40;99.90;;;;;;4945424;29;20215;-91
2023/11/17 08:40:19;;;;;;;32.63;22.20;;;9.50;99.90;;;;;;4940979;29;20735;-87
2023/11/17 08:42:46;;;;;;;37.57;23.57;;;9.60;99.90;;;;;;4958389;29;20240;-89
2023/11/17 08:45:12;;;;;;;33.63;23.10;;;9.50;99.90;;;;;;4940217;29;20181;-88
2023/11/17 08:47:40;;;;;;;33.70;22.90;;;9.50;99.90;;;;;;4940364;29;20271;-88
2023/11/17 08:50:10;;;;;;;37.30;23.63;;;9.60;99.90;;;;;;4943113;29;20187;-90
2023/11/17 08:52:37;;;;;;;36.70;23.73;;;9.40;99.90;;;;;;4942694;29;20202;-89
2023/11/17 08:55:07;;;;;;;41.10;24.57;;;9.30;99.90;;;;;;4941938;29;20220;-89
2023/11/17 08:57:34;;;;;;;34.10;23.77;;;9.30;99.90;;;;;;4942700;29;20208;-89
2023/11/17 09:00:00;;;;;;;34.60;23.00;;;9.40;99.90;;;;;;4941446;29;20214;-89
2023/11/17 09:02:29;;;;;;;39.23;24.27;;;9.40;99.90;;;;;;4943494;29;20208;-89
2023/11/17 09:04:54;;;;;;;36.53;23.30;;;9.30;99.90;;;;;;4949053;29;20735;-91
2023/11/17 09:07:22;;;;;;;33.17;23.10;;;9.30;99.90;;;;;;4965601;29;20216;-88
2023/11/17 09:09:50;;;;;;;36.40;23.53;;;9.30;99.90;;;;;;4945607;29;20607;-93
2023/11/17 09:12:15;;;;;;;32.70;22.63;;;9.20;99.90;;;;;;4940098;29;20183;-89
2023/11/17 09:14:42;;;;;;;35.30;22.83;;;9.20;99.90;;;;;;4941236;29;20647;-89
2023/11/17 09:17:07;;;;;;;36.60;23.97;;;9.30;99.90;;;;;;4940535;29;20668;-87
2023/11/17 09:19:36;;;;;;;34.70;23.23;;;9.30;99.90;;;;;;4940943;29;20208;-87
2023/11/17 09:22:02;;;;;;;34.93;23.23;;;9.30;99.90;;;;;;4944524;29;20282;-90
2023/11/17 09:24:28;;;;;;;37.27;24.70;;;9.30;99.90;;;;;;4944853;29;20652;-87
2023/11/17 09:26:54;;;;;;;33.33;22.87;;;9.40;99.90;;;;;;4952118;29;20192;-90
2023/11/17 09:29:19;;;;;;;30.93;21.13;;;9.40;99.90;;;;;;4969919;29;20188;-87
2023/11/17 09:31:45;;;;;;;34.60;22.83;;;9.60;99.90;;;;;;4956314;29;20184;-87
2023/11/17 09:34:10;;;;;;;30.43;18.73;;;9.40;99.90;;;;;;4957229;29;20184;-88
2023/11/17 09:36:40;;;;;;;31.10;21.23;;;9.30;99.90;;;;;;4943674;29;20238;-89
2023/11/17 09:39:13;;;;;;;32.07;20.53;;;9.30;99.90;;;;;;4943013;29;20184;-89
2023/11/17 09:41:43;;;;;;;30.87;19.23;;;9.30;99.90;;;;;;4941888;29;20203;-89
2023/11/17 09:44:09;;;;;;;29.07;19.30;;;9.50;99.90;;;;;;4950051;29;20177;-89
2023/11/17 09:46:45;;;;;;;28.13;18.40;;;9.60;99.90;;;;;;4940119;29;20285;-91
2023/11/17 09:49:14;;;;;;;29.40;18.27;;;9.40;99.90;;;;;;4940234;29;20202;-89
2023/11/17 09:51:42;;;;;;;25.70;18.47;;;9.50;99.90;;;;;;4940007;29;20184;-90
2023/11/17 09:54:13;;;;;;;28.10;17.97;;;9.50;99.90;;;;;;4939973;29;20586;-90
2023/11/17 09:56:42;;;;;;;28.53;18.40;;;9.50;99.90;;;;;;4940017;29;20239;-87
2023/11/17 09:59:09;;;;;;;26.80;18.00;;;9.70;99.90;;;;;;4940838;29;20633;-88
2023/11/17 10:01:38;;;;;;;25.00;16.63;;;9.60;99.90;;;;;;4942492;29;20644;-87
2023/11/17 10:04:05;;;;;;;26.40;17.03;;;9.80;99.90;;;;;;4943231;29;20746;-89
2023/11/17 10:06:33;;;;;;;25.93;15.90;;;9.70;99.90;;;;;;4961109;29;20245;-85
2023/11/17 10:09:01;;;;;;;26.43;17.13;;;9.70;99.90;;;;;;4961737;29;20191;-88
2023/11/17 10:11:27;;;;;;;27.13;16.17;;;9.90;99.90;;;;;;4943280;29;20546;-88
2023/11/17 10:13:56;;;;;;;25.03;14.90;;;9.90;99.90;;;;;;4927079;29;20258;-89
2023/11/17 10:16:23;;;;;;;23.07;14.20;;;10.00;99.90;;;;;;4943700;29;20223;-89
2023/11/17 10:18:50;;;;;;;22.10;14.23;;;10.00;99.90;;;;;;4944883;29;20180;-89
2023/11/17 10:21:19;;;;;;;23.80;15.20;;;10.10;99.90;;;;;;4945596;29;20228;-90
2023/11/17 10:23:46;;;;;;;23.27;13.90;;;10.00;99.90;;;;;;4945319;29;20212;-87
2023/11/17 10:26:12;;;;;;;21.40;13.30;;;10.20;99.90;;;;;;4942500;29;20193;-88
2023/11/17 10:28:38;;;;;;;19.97;12.07;;;10.10;99.90;;;;;;4941880;29;20182;-87
2023/11/17 10:31:07;;;;;;;24.30;13.33;;;10.10;99.90;;;;;;4942265;29;20192;-89
2023/11/17 10:33:37;;;;;;;22.17;13.97;;;10.10;99.90;;;;;;4943346;29;20188;-90
2023/11/17 10:36:10;;;;;;;24.10;17.90;;;10.10;99.90;;;;;;4948128;29;20693;-91
2023/11/17 10:38:37;;;;;;;21.23;12.70;;;10.00;99.90;;;;;;4950434;29;20227;-89
2023/11/17 10:41:17;;;;;;;20.77;12.73;;;10.10;99.90;;;;;;4951466;29;20555;-89
2023/11/17 10:43:51;;;;;;;17.97;11.83;;;10.00;99.90;;;;;;4965939;29;20180;-90
2023/11/17 10:46:44;;;;;;;18.87;11.70;;;10.00;99.90;;;;;;4945202;29;20715;-89
2023/11/17 10:49:16;;;;;;;20.20;15.00;;;9.90;99.90;;;;;;4935407;29;20184;-90
2023/11/17 10:51:50;;;;;;;21.80;14.50;;;9.80;99.90;;;;;;4942165;29;20203;-89
2023/11/17 10:54:16;;;;;;;20.07;11.73;;;9.90;99.90;;;;;;4941226;29;20180;-88
2023/11/17 10:56:44;;;;;;;18.50;12.07;;;9.80;99.90;;;;;;4942607;29;20220;-87
2023/11/17 10:59:15;;;;;;;20.00;11.77;;;9.80;99.90;;;;;;4945545;29;20191;-88
2023/11/17 11:01:42;;;;;;;19.03;12.03;;;9.90;99.90;;;;;;4948512;29;20180;-88
2023/11/17 11:04:09;;;;;;;17.43;10.60;;;10.10;99.90;;;;;;4951180;29;20257;-86
2023/11/17 11:06:38;;;;;;;18.13;12.10;;;10.10;99.90;;;;;;4950011;29;20203;-86
2023/11/17 11:09:08;;;;;;;16.07;10.80;;;10.20;99.90;;;;;;4951646;29;20222;-85
2023/11/17 11:11:34;;;;;;;16.37;10.20;;;10.10;99.90;;;;;;4949034;29;20191;-88
2023/11/17 11:14:01;;;;;;;16.60;10.60;;;10.20;99.90;;;;;;4942656;29;20185;-88
2023/11/17 11:16:32;;;;;;;18.20;10.27;;;10.10;99.90;;;;;;4943067;29;20263;-89
2023/11/17 11:19:02;;;;;;;20.47;12.10;;;10.30;99.90;;;;;;4944719;29;20176;-90
2023/11/17 11:21:33;;;;;;;19.70;12.50;;;10.30;99.90;;;;;;4945728;29;20273;-88
2023/11/17 11:24:01;;;;;;;18.77;11.80;;;10.40;99.90;;;;;;4955932;29;20255;-87
2023/11/17 11:26:30;;;;;;;18.53;11.90;;;10.60;99.90;;;;;;4942169;29;20280;-89
2023/11/17 11:28:58;;;;;;;15.07;10.60;;;10.70;99.90;;;;;;4941429;29;20184;-89
2023/11/17 11:31:27;;;;;;;18.07;10.33;;;10.80;99.90;;;;;;4941901;29;20232;-89
2023/11/17 11:33:53;;;;;;;15.57;10.53;;;10.80;99.90;;;;;;4962360;29;20188;-87
2023/11/17 11:36:19;;;;;;;17.93;9.90;;;10.80;99.90;;;;;;4948051;29;20228;-88
2023/11/17 11:38:49;;;;;;;17.27;10.40;;;10.70;99.90;;;;;;4973108;28;20188;-89
2023/11/17 11:41:17;;;;;;;17.77;10.03;;;10.50;99.90;;;;;;4941709;29;20194;-87
2023/11/17 11:43:47;;;;;;;15.50;8.63;;;10.50;99.90;;;;;;4941200;29;20184;-89
2023/11/17 11:46:17;;;;;;;17.80;10.23;;;10.50;99.90;;;;;;4973757;28;20280;-89
2023/11/17 11:49:05;;;;;;;14.03;9.87;;;10.60;99.90;;;;;;4941339;29;20185;-89
2023/11/17 11:51:40;;;;;;;15.27;9.63;;;10.80;99.90;;;;;;4941157;29;20187;-89
2023/11/17 11:54:09;;;;;;;16.87;9.67;;;10.80;99.90;;;;;;4979642;28;20169;-88
2023/11/17 11:56:42;;;;;;;15.60;9.83;;;10.90;99.90;;;;;;4992601;28;20297;-89
2023/11/17 11:59:10;;;;;;;15.20;10.00;;;11.00;99.90;;;;;;4988384;28;20693;-90
2023/11/17 12:01:36;;;;;;;17.23;10.27;;;11.20;99.90;;;;;;4948330;29;20199;-86
2023/11/17 12:04:06;;;;;;;15.87;10.03;;;11.10;99.90;;;;;;4969554;29;20178;-89
2023/11/17 12:06:35;;;;;;;17.63;9.77;;;10.80;99.90;;;;;;4957099;29;20189;-89
2023/11/17 12:09:16;;;;;;;19.33;9.60;;;11.00;99.90;;;;;;4992309;28;20182;-86
2023/11/17 12:11:52;;;;;;;14.27;9.83;;;11.10;99.90;;;;;;4984256;28;20704;-89
2023/11/17 12:14:29;;;;;;;12.90;8.53;;;11.30;99.90;;;;;;4974980;28;20176;-89
2023/11/17 12:16:58;;;;;;;10.17;7.43;;;11.40;99.90;;;;;;4973162;28;20225;-89
2023/11/17 12:19:31;;;;;;;13.10;7.80;;;11.50;99.90;;;;;;4973092;28;20661;-87
2023/11/17 12:22:15;;;;;;;12.97;8.53;;;11.50;99.90;;;;;;4972959;28;20196;-87
2023/11/17 12:24:43;;;;;;;14.43;7.60;;;11.40;99.90;;;;;;4975037;28;20548;-87
2023/11/17 12:27:10;;;;;;;13.37;8.00;;;11.40;99.90;;;;;;4979288;28;20231;-87
2023/11/17 12:29:37;;;;;;;12.87;8.50;;;11.10;99.90;;;;;;4976998;28;20192;-87
2023/11/17 12:32:06;;;;;;;14.00;7.97;;;11.10;99.90;;;;;;4972696;28;20244;-85
2023/11/17 12:34:32;;;;;;;14.03;8.23;;;11.20;99.90;;;;;;4972334;28;20603;-85
2023/11/17 12:37:02;;;;;;;10.87;7.97;;;11.40;99.90;;;;;;4972828;28;20201;-87
2023/11/17 12:39:40;;;;;;;11.87;7.77;;;11.30;99.90;;;;;;4957942;29;20542;-86